Ah Gwah Ching, Minnesota
Current Conditions -  °F | °C
As of 12:35 AM on Friday 31 Oct 2014 (Local Time) from KY49 Reporting Station
Clear Clear  
Wind Chill: 18°   Ceiling: Unl
Heat Index: 27°   Visibility: 10mi
Dew Point: 15°   Wind: 9mph
Humidity: 60%   Direction: 360°N
Pressure: 30.47"   Gusts: 21mph
Location:  47.08°N, 94.57°W
Report Text: KY49 310535Z AUTO 36008G18KT 330V030 10SM CLR M03/M10 A3047 RMK AO2 T10281097
Loading
Personal Weather Stations






























Interactive Weather Map
Tropical Storm Tracking
New forecast layout! Learn more

10-Day Weather Forecast

Advertisements
Track Severe Weather on mobile